Time;durP1;ratioP1;P1;durP2;ratioP2;P2;SDS_P1;SDS_P2;PMS_P1;PMS_P2;Temp;Humidity;BMP_temperature;BMP_pressure;BME280_temperature;BME280_humidity;BME280_pressure;Samples;Min_cycle;Max_cycle;Signal;HPM_P1;HPM_P2
2023/10/07 00:01:22;;;;;;;;;;;12.80;99.90;;;;;;5072615;28;20621;-73
2023/10/07 00:03:51;;;;;;;;;;;12.90;99.90;;;;;;5071740;28;19924;-73
2023/10/07 00:06:22;;;;;;;;;;;12.80;99.90;;;;;;5078448;28;19923;-73
2023/10/07 00:08:50;;;;;;;;;;;12.80;99.90;;;;;;5074058;28;20337;-73
2023/10/07 00:11:19;;;;;;;;;;;12.80;99.90;;;;;;5072333;28;20341;-73
2023/10/07 00:13:51;;;;;;;;;;;12.70;99.90;;;;;;5072020;28;19959;-73
2023/10/07 00:16:19;;;;;;;;;;;12.70;99.90;;;;;;5072456;28;19922;-73
2023/10/07 00:18:49;;;;;;;;;;;12.90;99.90;;;;;;5071958;28;19973;-71
2023/10/07 00:21:24;;;;;;;;;;;13.00;99.90;;;;;;5076316;28;20516;-73
2023/10/07 00:23:53;;;;;;;;;;;13.00;99.90;;;;;;5088622;28;19916;-72
2023/10/07 00:26:22;;;;;;;;;;;13.00;99.90;;;;;;5071465;28;20379;-73
2023/10/07 00:29:00;;;;;;;;;;;13.00;99.90;;;;;;5079605;28;19917;-73
2023/10/07 00:31:32;;;;;;;;;;;13.00;99.90;;;;;;5071908;28;19920;-77
2023/10/07 00:34:10;;;;;;;;;;;13.00;99.90;;;;;;5070036;28;19916;-72
2023/10/07 00:36:47;;;;;;;;;;;13.00;99.90;;;;;;5069849;28;20019;-75
2023/10/07 00:39:20;;;;;;;;;;;13.10;99.90;;;;;;5071787;28;19916;-74
2023/10/07 00:41:57;;;;;;;;;;;13.20;99.90;;;;;;5071619;28;20019;-72
2023/10/07 00:44:31;;;;;;;;;;;13.20;99.90;;;;;;5075127;28;19924;-72
2023/10/07 00:47:12;;;;;;;;;;;13.10;99.90;;;;;;5076487;28;19923;-72
2023/10/07 00:49:42;;;;;;;;;;;13.10;99.90;;;;;;5070708;28;19920;-72
2023/10/07 00:52:13;;;;;;;;;;;13.10;99.90;;;;;;5070967;28;19916;-72
2023/10/07 00:54:50;;;;;;;;;;;13.10;99.90;;;;;;5077741;28;19915;-73
2023/10/07 00:57:26;;;;;;;;;;;13.10;99.90;;;;;;5071500;28;19923;-72
2023/10/07 00:59:57;;;;;;;;;;;13.10;99.90;;;;;;5074367;28;19966;-71
2023/10/07 01:02:30;;;;;;;;;;;13.10;99.90;;;;;;5074448;28;20336;-71
2023/10/07 01:05:06;;;;;;;;;;;13.10;99.90;;;;;;5070854;28;19959;-72
2023/10/07 01:07:35;;;;;;;;;;;13.10;99.90;;;;;;5071266;28;19925;-73
2023/10/07 01:10:12;;;;;;;;;;;13.20;99.90;;;;;;5079468;28;19923;-73
2023/10/07 01:12:43;;;;;;;;;;;13.20;99.90;;;;;;5071789;28;19923;-73
2023/10/07 01:15:22;;;;;;;;;;;13.10;99.90;;;;;;5069762;28;19916;-73
2023/10/07 01:17:54;;;;;;;;;;;13.20;99.90;;;;;;5070830;28;20000;-73
2023/10/07 01:20:24;;;;;;;;;;;13.10;99.90;;;;;;5070954;28;19923;-74
2023/10/07 01:23:03;;;;;;;;;;;13.10;99.90;;;;;;5075307;28;20397;-74
2023/10/07 01:25:35;;;;;;;;;;;12.90;99.90;;;;;;5064206;28;19920;-76
2023/10/07 01:28:04;;;;;;;;;;;12.80;99.90;;;;;;5070139;28;19964;-73
2023/10/07 01:30:34;;;;;;;;;;;12.60;99.90;;;;;;5081747;28;20382;-75
2023/10/07 01:33:09;;;;;;;;;;;12.60;99.90;;;;;;5073211;28;20449;-72
2023/10/07 01:35:47;;;;;;;;;;;12.50;99.90;;;;;;5076979;28;19923;-74
2023/10/07 01:38:18;;;;;;;;;;;12.60;99.90;;;;;;5071030;28;20019;-74
2023/10/07 01:40:55;;;;;;;;;;;12.60;99.90;;;;;;5076967;28;19920;-74
2023/10/07 01:43:24;;;;;;;;;;;12.50;99.90;;;;;;5069690;28;20011;-74
2023/10/07 01:45:53;;;;;;;;;;;12.30;99.90;;;;;;5078306;28;20015;-73
2023/10/07 01:48:21;;;;;;;;;;;12.10;99.90;;;;;;5071165;28;19982;-74
2023/10/07 01:50:50;;;;;;;;;;;12.00;99.90;;;;;;5075604;28;19916;-71
2023/10/07 01:53:19;;;;;;;;;;;12.00;99.90;;;;;;5070270;28;19922;-73
2023/10/07 01:55:46;;;;;;;;;;;12.00;99.90;;;;;;5075359;28;19917;-73
2023/10/07 01:58:15;;;;;;;;;;;12.00;99.90;;;;;;5070337;28;19916;-72
2023/10/07 02:00:44;;;;;;;;;;;11.90;99.90;;;;;;5070931;28;20398;-72
2023/10/07 02:03:16;;;;;;;;;;;11.90;99.90;;;;;;5069819;28;19922;-72
2023/10/07 02:05:48;;;;;;;;;;;11.90;99.90;;;;;;5070538;28;19920;-72
2023/10/07 02:08:20;;;;;;;;;;;12.00;99.90;;;;;;5070063;28;19927;-72
2023/10/07 02:10:50;;;;;;;;;;;12.10;99.90;;;;;;5075823;28;20286;-75
2023/10/07 02:13:19;;;;;;;;;;;12.20;99.90;;;;;;5069338;28;19927;-72
2023/10/07 02:15:47;;;;;;;;;;;12.30;99.90;;;;;;5069749;28;19916;-71
2023/10/07 02:18:18;;;;;;;;;;;12.50;99.90;;;;;;5076062;28;19981;-71
2023/10/07 02:20:49;;;;;;;;;;;12.60;99.90;;;;;;5069565;28;20371;-75
2023/10/07 02:23:22;;;;;;;;;;;12.60;99.90;;;;;;5078644;28;19916;-72
2023/10/07 02:25:51;;;;;;;;;;;12.70;99.90;;;;;;5070563;28;20006;-72
2023/10/07 02:28:21;;;;;;;;;;;12.70;99.90;;;;;;5080077;28;23171;-73
2023/10/07 02:31:00;;;;;;;;;;;12.60;99.90;;;;;;5079279;28;19916;-73
2023/10/07 02:33:28;;;;;;;;;;;12.60;99.90;;;;;;5083019;28;19981;-73
2023/10/07 02:35:57;;;;;;;;;;;12.60;99.90;;;;;;5081575;28;19920;-73
2023/10/07 02:38:28;;;;;;;;;;;12.60;99.90;;;;;;5076165;28;19920;-73
2023/10/07 02:41:06;;;;;;;;;;;12.60;99.90;;;;;;5074281;28;19966;-72
2023/10/07 02:43:35;;;;;;;;;;;12.60;99.90;;;;;;5084622;28;20006;-73
2023/10/07 02:46:05;;;;;;;;;;;12.60;99.90;;;;;;5077046;28;19923;-72
2023/10/07 02:48:36;;;;;;;;;;;12.50;99.90;;;;;;5073970;28;19916;-73
2023/10/07 02:51:11;;;;;;;;;;;12.50;99.90;;;;;;5074025;28;20014;-73
2023/10/07 02:53:38;;;;;;;;;;;12.50;99.90;;;;;;5073420;28;19924;-73
2023/10/07 02:56:17;;;;;;;;;;;12.40;99.90;;;;;;5078447;28;19927;-72
2023/10/07 02:59:00;;;;;;;;;;;12.30;99.90;;;;;;5073722;28;19920;-76
2023/10/07 03:01:29;;;;;;;;;;;12.30;99.90;;;;;;5072938;28;19976;-72
2023/10/07 03:04:00;;;;;;;;;;;12.30;99.90;;;;;;5078238;28;19923;-73
2023/10/07 03:06:28;;;;;;;;;;;12.20;99.90;;;;;;5076576;28;19916;-73
2023/10/07 03:09:01;;;;;;;;;;;12.20;99.90;;;;;;5086491;28;20396;-73
2023/10/07 03:11:48;;;;;;;;;;;12.20;99.90;;;;;;5073884;28;19916;-73
2023/10/07 03:14:25;;;;;;;;;;;12.20;99.90;;;;;;5073072;28;19927;-73
2023/10/07 03:16:59;;;;;;;;;;;12.20;99.90;;;;;;5073650;28;19927;-73
2023/10/07 03:19:45;;;;;;;;;;;12.20;99.90;;;;;;5082180;28;19916;-73
2023/10/07 03:22:15;;;;;;;;;;;12.20;99.90;;;;;;5073536;28;20463;-73
2023/10/07 03:24:48;;;;;;;;;;;12.20;99.90;;;;;;5081330;28;19920;-73
2023/10/07 03:27:25;;;;;;;;;;;12.10;99.90;;;;;;5071361;28;19921;-75
2023/10/07 03:30:12;;;;;;;;;;;12.20;99.90;;;;;;5071589;28;19982;-73
2023/10/07 03:32:56;;;;;;;;;;;12.20;99.90;;;;;;5066102;28;19923;-70
2023/10/07 03:36:07;;;;;;;;;;;12.10;99.90;;;;;;5084846;28;20007;-71
2023/10/07 03:38:27;;;;;;;;;;;12.10;99.90;;;;;;5072227;28;19916;-73
2023/10/07 03:40:55;;;;;;;;;;;12.20;99.90;;;;;;5072445;28;19931;-72
2023/10/07 03:43:26;;;;;;;;;;;12.00;99.90;;;;;;5072760;28;19924;-72
2023/10/07 03:45:54;;;;;;;;;;;11.90;99.90;;;;;;5072813;28;19967;-72
2023/10/07 03:48:30;;;;;;;;;;;11.80;99.90;;;;;;5072654;28;20386;-73
2023/10/07 03:51:05;;;;;;;;;;;11.60;99.90;;;;;;5076562;28;19928;-72
2023/10/07 03:53:37;;;;;;;;;;;11.60;99.90;;;;;;5074447;28;20056;-72
2023/10/07 03:56:08;;;;;;;;;;;11.50;99.90;;;;;;5074952;28;19916;-73
2023/10/07 03:58:37;;;;;;;;;;;11.40;99.90;;;;;;5075033;28;19916;-75
2023/10/07 04:01:11;;;;;;;;;;;11.40;99.90;;;;;;5076627;28;20378;-72
2023/10/07 04:03:40;;;;;;;;;;;11.30;99.90;;;;;;5069967;28;19917;-73
2023/10/07 04:06:10;;;;;;;;;;;11.40;99.90;;;;;;5072567;28;19920;-73
2023/10/07 04:08:39;;;;;;;;;;;11.40;99.90;;;;;;5065336;28;20332;-71
2023/10/07 04:11:16;;;;;;;;;;;11.50;99.90;;;;;;5069160;28;19923;-71
2023/10/07 04:13:53;;;;;;;;;;;11.40;99.90;;;;;;5069677;28;20011;-72
2023/10/07 04:16:24;;;;;;;;;;;11.40;99.90;;;;;;5080210;28;19923;-74
2023/10/07 04:18:53;;;;;;;;;;;11.50;99.90;;;;;;5072280;28;19916;-72
2023/10/07 04:21:21;;;;;;;;;;;11.70;99.90;;;;;;5076857;28;20498;-73
2023/10/07 04:23:49;;;;;;;;;;;11.90;99.90;;;;;;5074453;28;19922;-75
2023/10/07 04:26:20;;;;;;;;;;;11.90;99.90;;;;;;5074626;28;19928;-72
2023/10/07 04:28:50;;;;;;;;;;;11.70;99.90;;;;;;5072043;28;19920;-72
2023/10/07 04:31:29;;;;;;;;;;;11.60;99.90;;;;;;5076058;28;20002;-73
2023/10/07 04:34:02;;;;;;;;;;;11.50;99.90;;;;;;5072061;28;20370;-72
2023/10/07 04:36:33;;;;;;;;;;;11.50;99.90;;;;;;5073376;28;19932;-75
2023/10/07 04:39:17;;;;;;;;;;;11.60;99.90;;;;;;5071639;28;20286;-74
2023/10/07 04:41:56;;;;;;;;;;;11.90;99.90;;;;;;5074466;28;19970;-72
2023/10/07 04:45:15;;;;;;;;;;;12.00;99.90;;;;;;5071595;28;19920;-77
2023/10/07 04:47:29;;;;;;;;;;;11.90;99.90;;;;;;5068358;28;19917;-74
2023/10/07 04:49:59;;;;;;;;;;;12.10;99.90;;;;;;5073498;28;19916;-74
2023/10/07 04:52:28;;;;;;;;;;;12.10;99.90;;;;;;5071508;28;19952;-75
2023/10/07 04:54:58;;;;;;;;;;;12.10;99.90;;;;;;5072670;28;19953;-72
2023/10/07 04:57:39;;;;;;;;;;;12.10;99.90;;;;;;5074603;28;20039;-73
2023/10/07 05:00:09;;;;;;;;;;;12.30;99.90;;;;;;5071797;28;19960;-74
2023/10/07 05:02:38;;;;;;;;;;;12.40;99.90;;;;;;5070977;28;20267;-73
2023/10/07 05:05:13;;;;;;;;;;;12.40;99.90;;;;;;5071919;28;19923;-72
2023/10/07 05:07:43;;;;;;;;;;;12.30;99.90;;;;;;5063078;28;19917;-73
2023/10/07 05:10:11;;;;;;;;;;;12.30;99.90;;;;;;5064841;28;20401;-73
2023/10/07 05:12:39;;;;;;;;;;;12.30;99.90;;;;;;5064178;28;20006;-71
2023/10/07 05:15:08;;;;;;;;;;;12.20;99.90;;;;;;5073706;28;19920;-72
2023/10/07 05:17:36;;;;;;;;;;;12.10;99.90;;;;;;5071422;28;19935;-75
2023/10/07 05:20:24;;;;;;;;;;;12.00;99.90;;;;;;5071452;28;19935;-73
2023/10/07 05:22:53;;;;;;;6.53;4.15;;;12.10;99.90;;;;;;5074339;28;19917;-71
2023/10/07 05:25:21;;;;;;;5.47;3.17;;;12.00;99.90;;;;;;5070658;28;20242;-72
2023/10/07 05:27:51;;;;;;;6.28;3.80;;;12.00;99.90;;;;;;5066679;28;20215;-72
2023/10/07 05:30:21;;;;;;;6.93;4.13;;;12.00;99.90;;;;;;5079274;28;20255;-73
2023/10/07 05:32:52;;;;;;;7.25;3.75;;;12.00;99.90;;;;;;5079388;28;20195;-72
2023/10/07 05:35:20;;;;;;;5.95;3.17;;;12.20;99.90;;;;;;5070989;28;20223;-72
2023/10/07 05:37:49;;;;;;;5.35;3.22;;;12.20;99.90;;;;;;5080193;28;20199;-70
2023/10/07 05:40:21;;;;;;;5.00;3.60;;;12.20;99.90;;;;;;5079045;28;20692;-76
2023/10/07 05:42:49;;;;;;;8.45;3.63;;;12.10;99.90;;;;;;5065174;28;20241;-72
2023/10/07 05:45:17;;;;;;;5.80;4.25;;;11.90;99.90;;;;;;5070519;28;20284;-73
2023/10/07 05:47:45;;;;;;;9.10;3.95;;;11.80;99.90;;;;;;5070432;28;20199;-74
2023/10/07 05:50:15;;;;;;;4.78;3.40;;;11.80;99.90;;;;;;5070925;28;20290;-75
2023/10/07 05:52:44;;;;;;;4.70;3.00;;;11.70;99.90;;;;;;5079376;28;20606;-72
2023/10/07 05:55:11;;;;;;;5.47;3.65;;;11.70;99.90;;;;;;5069977;28;20226;-72
2023/10/07 05:57:39;;;;;;;4.80;3.22;;;11.70;99.90;;;;;;5065448;28;20211;-71
2023/10/07 06:00:09;;;;;;;7.28;3.50;;;11.70;99.90;;;;;;5058088;28;20222;-72
2023/10/07 06:02:40;;;;;;;8.13;3.63;;;11.90;99.90;;;;;;5062946;28;20211;-71
2023/10/07 06:05:10;;;;;;;4.40;3.90;;;11.90;99.90;;;;;;5063542;28;20226;-70
2023/10/07 06:07:40;;;;;;;5.15;3.15;;;12.00;99.90;;;;;;5062467;28;20235;-71
2023/10/07 06:10:11;;;;;;;4.65;2.83;;;12.10;99.90;;;;;;5062987;28;20231;-71
2023/10/07 06:12:40;;;;;;;10.25;4.80;;;12.20;99.90;;;;;;5063022;28;20305;-72
2023/10/07 06:15:10;;;;;;;4.47;3.80;;;12.00;99.90;;;;;;5063467;28;20654;-73
2023/10/07 06:17:42;;;;;;;6.75;3.83;;;12.00;99.90;;;;;;5063143;28;20215;-71
2023/10/07 06:20:14;;;;;;;7.22;4.15;;;11.90;99.90;;;;;;5063248;28;20218;-71
2023/10/07 06:22:46;;;;;;;7.32;4.32;;;11.90;99.90;;;;;;5063031;28;20334;-70
2023/10/07 06:25:15;;;;;;;5.70;3.13;;;11.90;99.90;;;;;;5062354;28;20292;-72
2023/10/07 06:27:44;;;;;;;8.52;4.00;;;11.90;99.90;;;;;;5062769;28;21177;-69
2023/10/07 06:30:20;;;;;;;7.25;3.50;;;11.90;99.90;;;;;;5063180;28;20712;-71
2023/10/07 06:32:55;;;;;;;4.50;3.42;;;12.10;99.90;;;;;;5063411;28;20213;-72
2023/10/07 06:35:24;;;;;;;7.10;4.03;;;12.20;99.90;;;;;;5063123;28;20249;-72
2023/10/07 06:37:57;;;;;;;4.88;3.55;;;12.30;99.90;;;;;;5063071;28;20216;-74
2023/10/07 06:40:28;;;;;;;5.65;3.33;;;12.40;99.90;;;;;;5062761;28;20211;-70
2023/10/07 06:42:58;;;;;;;4.72;2.65;;;12.40;99.90;;;;;;5063439;28;20211;-73
2023/10/07 06:45:35;;;;;;;6.30;3.85;;;12.40;99.90;;;;;;5062910;28;20244;-72
2023/10/07 06:48:06;;;;;;;5.55;3.15;;;12.50;99.90;;;;;;5063139;28;20205;-74
2023/10/07 06:50:34;;;;;;;6.55;4.80;;;12.40;99.90;;;;;;5062694;28;20234;-72
2023/10/07 06:53:05;;;;;;;4.53;3.10;;;12.50;99.90;;;;;;5062805;28;20600;-73
2023/10/07 06:55:41;;;;;;;3.70;2.90;;;12.40;99.90;;;;;;5062460;28;20276;-71
2023/10/07 06:58:11;;;;;;;6.13;3.20;;;12.50;99.90;;;;;;5061941;28;20356;-70
2023/10/07 07:00:47;;;;;;;5.55;3.75;;;12.60;99.90;;;;;;5062552;28;20213;-71
2023/10/07 07:03:18;;;;;;;4.15;3.63;;;12.70;99.90;;;;;;5063061;28;20635;-71
2023/10/07 07:05:48;;;;;;;6.43;4.00;;;12.70;99.90;;;;;;5062444;28;20705;-71
2023/10/07 07:08:22;;;;;;;3.92;3.53;;;12.60;99.90;;;;;;5062483;28;20211;-71
2023/10/07 07:10:50;;;;;;;5.72;3.00;;;12.70;99.90;;;;;;5062639;28;20217;-74
2023/10/07 07:13:23;;;;;;;6.05;3.05;;;12.60;99.90;;;;;;5062227;28;20222;-71
2023/10/07 07:15:57;;;;;;;4.22;2.60;;;12.60;99.90;;;;;;5061912;28;20237;-72
2023/10/07 07:18:26;;;;;;;4.97;2.85;;;12.70;99.90;;;;;;5062399;28;20206;-74
2023/10/07 07:21:14;;;;;;;4.82;2.83;;;12.60;99.90;;;;;;5061761;28;20211;-74
2023/10/07 07:23:45;;;;;;;5.90;3.10;;;12.60;99.90;;;;;;5061785;28;20219;-72
2023/10/07 07:26:18;;;;;;;4.32;3.30;;;12.60;99.90;;;;;;5061746;28;20262;-71
2023/10/07 07:28:46;;;;;;;3.75;2.70;;;12.60;99.90;;;;;;5062442;28;20686;-71
2023/10/07 07:31:26;;;;;;;5.55;3.83;;;12.70;99.90;;;;;;5062076;28;20211;-71
2023/10/07 07:34:06;;;;;;;3.85;2.60;;;12.70;99.90;;;;;;5062425;28;20264;-70
2023/10/07 07:36:39;;;;;;;4.13;2.67;;;12.80;99.90;;;;;;5061300;28;20227;-73
2023/10/07 07:39:10;;;;;;;3.88;3.13;;;12.90;99.90;;;;;;5061377;28;20211;-73
2023/10/07 07:41:54;;;;;;;4.40;3.40;;;13.00;99.90;;;;;;5061777;28;20306;-71
2023/10/07 07:44:32;;;;;;;4.80;2.95;;;13.10;99.90;;;;;;5061824;28;20203;-73
2023/10/07 07:47:02;;;;;;;7.30;3.42;;;13.20;99.90;;;;;;5061532;28;20294;-71
2023/10/07 07:49:32;;;;;;;4.65;2.85;;;13.30;99.90;;;;;;5061603;28;20231;-71
2023/10/07 07:52:00;;;;;;;7.07;3.67;;;13.20;99.90;;;;;;5062029;28;21397;-70
2023/10/07 07:54:30;;;;;;;15.10;3.80;;;13.30;99.90;;;;;;5061216;28;20545;-70
2023/10/07 07:57:04;;;;;;;8.73;4.25;;;13.50;99.90;;;;;;5061119;28;20595;-74
2023/10/07 07:59:33;;;;;;;5.78;4.10;;;13.20;99.90;;;;;;5061684;28;20203;-71
2023/10/07 08:02:11;;;;;;;5.57;3.78;;;13.00;99.90;;;;;;5061873;28;20208;-73
2023/10/07 08:04:43;;;;;;;6.13;4.93;;;13.10;99.90;;;;;;5061132;28;20215;-74
2023/10/07 08:07:18;;;;;;;7.05;3.47;;;13.10;99.90;;;;;;5060971;28;20215;-73
2023/10/07 08:09:50;;;;;;;6.68;4.63;;;13.10;99.90;;;;;;5061137;28;20258;-71
2023/10/07 08:12:28;;;;;;;6.38;3.83;;;13.30;99.90;;;;;;5060479;28;20211;-72
2023/10/07 08:14:58;;;;;;;4.45;3.45;;;13.40;99.90;;;;;;5060996;28;20238;-73
2023/10/07 08:17:27;;;;;;;6.03;5.35;;;13.30;99.90;;;;;;5061476;28;20210;-73
2023/10/07 08:19:57;;;;;;;11.13;6.88;;;13.40;99.90;;;;;;5060411;28;20222;-73
2023/10/07 08:22:27;;;;;;;6.68;5.60;;;13.40;99.90;;;;;;5061169;28;20207;-73
2023/10/07 08:25:00;;;;;;;7.00;5.75;;;13.40;99.90;;;;;;5059912;28;20254;-72
2023/10/07 08:27:49;;;;;;;6.50;4.20;;;13.30;99.90;;;;;;5059062;28;20207;-74
2023/10/07 08:30:31;;;;;;;5.93;4.28;;;13.30;99.90;;;;;;5060922;28;20321;-73
2023/10/07 08:33:05;;;;;;;7.20;4.35;;;13.60;99.90;;;;;;5066157;28;20203;-73
2023/10/07 08:35:35;;;;;;;9.65;4.40;;;13.80;99.90;;;;;;5070680;28;20249;-75
2023/10/07 08:38:19;;;;;;;12.32;4.00;;;13.80;99.90;;;;;;5069197;28;20291;-73
2023/10/07 08:41:04;;;;;;;6.45;2.90;;;14.00;99.90;;;;;;5075296;28;20613;-69
2023/10/07 08:43:37;;;;;;;3.97;2.78;;;14.20;99.90;;;;;;5070054;28;20593;-73
2023/10/07 08:46:09;;;;;;;6.50;3.65;;;14.40;99.90;;;;;;5071588;28;20215;-72
2023/10/07 08:48:39;;;;;;;9.35;3.75;;;14.60;99.90;;;;;;5079745;28;20195;-69
2023/10/07 08:51:14;;;;;;;7.30;3.85;;;14.60;99.90;;;;;;5071380;28;20273;-72
2023/10/07 08:53:42;;;;;;;4.57;3.50;;;14.70;99.90;;;;;;5079654;28;20646;-74
2023/10/07 08:56:13;;;;;;;8.15;4.65;;;14.60;99.90;;;;;;5064417;28;20337;-72
2023/10/07 08:58:43;;;;;;;7.57;4.53;;;14.70;99.90;;;;;;5079543;28;20610;-73
2023/10/07 09:01:17;;;;;;;8.73;5.15;;;14.70;99.90;;;;;;5071061;28;20225;-72
2023/10/07 09:03:49;;;;;;;6.97;5.13;;;14.70;99.90;;;;;;5071252;28;20210;-72
2023/10/07 09:06:19;;;;;;;7.20;5.80;;;14.60;99.90;;;;;;5079448;28;20230;-74
2023/10/07 09:08:48;;;;;;;9.93;5.75;;;14.60;99.90;;;;;;5079472;28;20204;-72
2023/10/07 09:11:19;;;;;;;6.55;5.85;;;14.60;99.90;;;;;;5079584;28;20280;-72
2023/10/07 09:13:49;;;;;;;6.32;5.65;;;14.70;99.90;;;;;;5077424;28;20548;-72
2023/10/07 09:16:21;;;;;;;7.53;5.55;;;14.60;99.90;;;;;;5070507;28;20218;-75
2023/10/07 09:18:56;;;;;;;7.38;5.28;;;14.60;99.90;;;;;;5071120;28;20836;-72
2023/10/07 09:21:31;;;;;;;5.72;3.92;;;14.70;99.90;;;;;;5079517;28;20232;-73
2023/10/07 09:24:02;;;;;;;5.22;4.10;;;14.80;99.90;;;;;;5073794;28;20223;-73
2023/10/07 09:26:33;;;;;;;5.82;4.00;;;14.90;99.90;;;;;;5074889;28;20234;-71
2023/10/07 09:29:14;;;;;;;6.00;3.55;;;15.10;99.90;;;;;;5079292;28;20317;-72
2023/10/07 09:31:44;;;;;;;3.65;3.13;;;15.20;99.90;;;;;;5070682;28;20210;-73
2023/10/07 09:34:29;;;;;;;5.35;3.70;;;15.30;99.90;;;;;;5063792;28;20260;-72
2023/10/07 09:36:58;;;;;;;5.05;4.18;;;15.20;99.90;;;;;;5078561;28;20591;-72
2023/10/07 09:39:43;;;;;;;3.67;3.28;;;15.20;99.90;;;;;;5070940;28;20268;-72
2023/10/07 09:42:36;;;;;;;4.60;3.60;;;15.20;99.90;;;;;;5063589;28;20206;-72
2023/10/07 09:45:16;;;;;;;3.42;3.00;;;15.20;99.90;;;;;;5073891;28;20218;-72
2023/10/07 09:47:44;;;;;;;4.75;3.55;;;15.30;99.90;;;;;;5075820;28;20221;-72
2023/10/07 09:50:19;;;;;;;7.60;3.70;;;15.40;99.90;;;;;;5070712;28;20224;-71
2023/10/07 09:52:56;;;;;;;4.43;2.95;;;15.60;99.90;;;;;;5071503;28;20210;-69
2023/10/07 09:55:38;;;;;;;5.88;4.20;;;16.00;99.90;;;;;;5076469;28;20215;-72
2023/10/07 09:58:36;;;;;;;5.45;3.58;;;16.00;99.90;;;;;;5070070;28;20217;-74
2023/10/07 10:01:28;;;;;;;4.90;4.03;;;16.30;99.90;;;;;;5070554;28;20195;-71
2023/10/07 10:04:21;;;;;;;4.65;3.35;;;16.20;99.90;;;;;;5078784;28;20214;-73
2023/10/07 10:07:10;;;;;;;4.55;3.22;;;16.20;99.90;;;;;;5077919;28;20252;-69
2023/10/07 10:10:00;;;;;;;6.72;3.92;;;16.20;99.90;;;;;;5079021;28;20203;-72
2023/10/07 10:12:49;;;;;;;3.63;3.08;;;16.20;99.90;;;;;;5064972;28;20199;-70
2023/10/07 10:18:07;;;;;;;5.00;2.83;;;16.30;99.90;;;;;;5072878;28;20209;-71
2023/10/07 10:20:43;;;;;;;3.17;2.55;;;16.50;99.90;;;;;;5078073;28;20210;-72
2023/10/07 10:23:19;;;;;;;4.95;2.85;;;16.70;99.90;;;;;;5070529;28;20230;-74
2023/10/07 10:25:49;;;;;;;3.60;2.65;;;17.00;99.90;;;;;;5078156;28;20241;-71
2023/10/07 10:28:21;;;;;;;5.13;3.30;;;17.00;99.90;;;;;;5070188;28;20203;-72
2023/10/07 10:30:53;;;;;;;3.53;2.40;;;17.10;99.90;;;;;;5070174;28;20230;-70
2023/10/07 10:33:23;;;;;;;2.95;2.40;;;17.00;99.90;;;;;;5078707;28;20655;-68
2023/10/07 10:35:55;;;;;;;5.93;2.50;;;17.00;99.90;;;;;;5069818;28;20757;-70
2023/10/07 10:38:37;;;;;;;2.60;2.22;;;17.10;99.90;;;;;;5069346;28;20199;-72
2023/10/07 10:41:05;;;;;;;6.40;3.17;;;17.00;99.90;;;;;;5070817;28;20203;-71
2023/10/07 10:43:33;;;;;;;3.47;3.15;;;16.80;99.90;;;;;;5069931;28;20211;-71
2023/10/07 10:46:04;;;;;;;4.03;2.65;;;16.90;99.90;;;;;;5069801;28;20227;-72
2023/10/07 10:48:34;;;;;;;4.82;2.42;;;16.90;99.90;;;;;;5079717;28;20214;-72
2023/10/07 10:51:05;;;;;;;4.22;3.17;;;17.00;99.90;;;;;;5083293;28;20288;-70
2023/10/07 10:53:33;;;;;;;3.25;2.13;;;17.20;99.90;;;;;;5081957;28;20207;-74
2023/10/07 10:56:02;;;;;;;3.30;2.38;;;17.40;99.90;;;;;;5075393;28;20568;-73
2023/10/07 10:58:30;;;;;;;5.32;2.58;;;17.40;99.90;;;;;;5079361;28;20290;-71
2023/10/07 11:00:58;;;;;;;3.15;2.38;;;17.50;99.90;;;;;;5082023;28;20203;-72
2023/10/07 11:03:28;;;;;;;2.92;1.98;;;17.40;99.90;;;;;;5073673;28;20210;-67
2023/10/07 11:05:56;;;;;;;3.78;2.70;;;17.60;99.90;;;;;;5081814;28;20701;-71
2023/10/07 11:08:26;;;;;;;3.30;2.72;;;17.60;99.90;;;;;;5073201;28;20226;-71
2023/10/07 11:10:55;;;;;;;2.30;1.75;;;17.50;99.90;;;;;;5073811;28;20230;-71
2023/10/07 11:13:24;;;;;;;2.97;2.05;;;17.90;99.90;;;;;;5073327;28;20286;-71
2023/10/07 11:15:58;;;;;;;1.92;1.70;;;18.50;99.90;;;;;;5081481;28;20222;-72
2023/10/07 11:18:31;;;;;;;2.53;1.80;;;19.00;99.90;;;;;;5073166;28;20205;-72
2023/10/07 11:21:01;;;;;;;2.97;2.50;;;19.60;99.90;;;;;;5081369;28;20210;-73
2023/10/07 11:23:30;;;;;;;2.10;1.60;;;20.00;99.90;;;;;;5078960;28;20676;-71
2023/10/07 11:25:57;;;;;;;1.90;1.70;;;20.30;99.90;;;;;;5083246;28;20234;-71
2023/10/07 11:28:33;;;;;;;2.75;2.15;;;20.70;99.90;;;;;;5077768;28;20207;-70
2023/10/07 11:31:01;;;;;;;2.53;2.33;;;21.00;99.90;;;;;;5083255;28;20715;-72
2023/10/07 11:33:30;;;;;;;2.67;1.73;;;21.10;99.90;;;;;;5073108;28;20209;-75
2023/10/07 11:35:59;;;;;;;2.00;1.80;;;21.30;99.90;;;;;;5081123;28;20318;-71
2023/10/07 11:38:27;;;;;;;3.50;1.83;;;21.70;99.90;;;;;;5072704;28;20286;-71
2023/10/07 11:40:56;;;;;;;3.80;1.65;;;21.90;99.90;;;;;;5074035;28;20211;-72
2023/10/07 11:43:24;;;;;;;2.58;1.80;;;22.00;99.90;;;;;;5072843;28;20256;-72
2023/10/07 11:45:52;;;;;;;4.70;2.20;;;21.80;99.90;;;;;;5072670;28;20305;-71
2023/10/07 11:48:21;;;;;;;5.00;2.40;;;21.90;99.90;;;;;;5080463;28;20210;-72
2023/10/07 11:50:51;;;;;;;2.10;1.90;;;21.50;99.90;;;;;;5072868;28;20719;-74
2023/10/07 11:53:19;;;;;;;2.97;2.38;;;21.40;99.90;;;;;;5077197;28;20194;-70
2023/10/07 11:55:48;;;;;;;3.47;2.30;;;21.20;99.90;;;;;;5076774;28;20306;-74
2023/10/07 11:58:17;;;;;;;2.00;1.90;;;21.20;99.90;;;;;;5079310;28;20260;-72
2023/10/07 12:00:46;;;;;;;5.13;2.95;;;21.20;99.90;;;;;;5076920;28;20610;-71
2023/10/07 12:03:14;;;;;;;3.33;2.22;;;21.30;99.90;;;;;;5070384;28;20196;-74
2023/10/07 12:05:43;;;;;;;3.13;1.85;;;21.60;99.90;;;;;;5060133;28;20314;-72
2023/10/07 12:08:13;;;;;;;2.53;1.88;;;21.90;99.90;;;;;;5059497;28;20591;-70
2023/10/07 12:10:41;;;;;;;2.20;1.67;;;21.90;99.90;;;;;;5058378;28;20210;-72
2023/10/07 12:13:11;;;;;;;2.20;1.50;;;21.90;99.90;;;;;;5059395;28;20219;-76
2023/10/07 12:15:42;;;;;;;2.97;1.63;;;22.10;99.90;;;;;;5060530;28;20226;-75
2023/10/07 12:18:30;;;;;;;2.92;1.67;;;22.50;99.90;;;;;;5061833;28;20701;-75
2023/10/07 12:21:00;;;;;;;3.22;1.40;;;23.10;99.90;;;;;;5062239;28;20238;-74
2023/10/07 12:23:32;;;;;;;1.63;1.23;;;23.10;99.90;;;;;;5060812;28;20211;-77
2023/10/07 12:26:01;;;;;;;1.75;1.65;;;23.10;99.90;;;;;;5059676;28;20392;-73
2023/10/07 12:28:30;;;;;;;1.83;1.67;;;23.10;99.90;;;;;;5059860;28;20212;-76
2023/10/07 12:30:58;;;;;;;2.22;1.10;;;23.20;99.90;;;;;;5059110;28;20593;-75
2023/10/07 12:33:28;;;;;;;2.75;2.00;;;23.40;99.90;;;;;;5059634;28;20944;-77
2023/10/07 12:36:11;;;;;;;1.77;1.30;;;23.70;99.90;;;;;;5059581;28;20318;-74
2023/10/07 12:38:40;;;;;;;2.20;1.40;;;23.80;99.90;;;;;;5059431;28;20272;-75
2023/10/07 12:41:09;;;;;;;3.03;1.73;;;23.70;99.90;;;;;;5060183;28;20218;-75
2023/10/07 12:43:37;;;;;;;1.70;1.60;;;23.90;99.90;;;;;;5060833;28;20215;-74
2023/10/07 12:46:09;;;;;;;2.30;1.60;;;24.30;99.90;;;;;;5060587;28;21269;-74
2023/10/07 12:48:40;;;;;;;3.53;1.55;;;24.20;99.90;;;;;;5060870;28;20753;-72
2023/10/07 12:51:08;;;;;;;1.65;1.27;;;24.20;99.90;;;;;;5060050;28;20276;-75
2023/10/07 12:53:36;;;;;;;1.90;1.45;;;24.00;99.90;;;;;;5060006;28;20323;-75
2023/10/07 12:56:14;;;;;;;3.53;2.28;;;24.00;99.90;;;;;;5059629;28;20227;-74
2023/10/07 12:58:45;;;;;;;4.13;1.90;;;24.10;99.90;;;;;;5059974;28;20195;-75
2023/10/07 13:01:13;;;;;;;2.67;1.60;;;24.30;99.90;;;;;;5060121;28;20214;-75
2023/10/07 13:03:43;;;;;;;3.80;2.30;;;24.40;99.90;;;;;;5059837;28;20268;-76
2023/10/07 13:06:14;;;;;;;2.22;1.45;;;24.70;99.90;;;;;;5059937;28;20230;-76
2023/10/07 13:08:43;;;;;;;2.25;1.35;;;25.10;99.90;;;;;;5060510;28;20719;-74
2023/10/07 13:11:14;;;;;;;2.97;1.90;;;24.90;99.90;;;;;;5059409;28;20203;-74
2023/10/07 13:13:45;;;;;;;1.73;1.63;;;24.80;99.90;;;;;;5059694;28;20211;-74
2023/10/07 13:16:14;;;;;;;2.10;1.40;;;24.90;99.90;;;;;;5060284;28;20219;-75
2023/10/07 13:18:44;;;;;;;2.08;1.63;;;24.60;99.90;;;;;;5060284;28;20615;-74
2023/10/07 13:21:16;;;;;;;3.17;1.63;;;24.60;99.90;;;;;;5059170;28;20196;-75
2023/10/07 13:23:46;;;;;;;1.67;1.00;;;24.90;99.90;;;;;;5059202;28;20203;-74
2023/10/07 13:26:16;;;;;;;1.40;1.23;;;25.00;99.90;;;;;;5057761;28;20731;-75
2023/10/07 13:28:48;;;;;;;1.73;1.55;;;25.00;99.90;;;;;;5059592;28;20207;-76
2023/10/07 13:31:17;;;;;;;2.95;1.60;;;24.80;99.90;;;;;;5058945;28;20322;-76
2023/10/07 13:33:46;;;;;;;2.58;1.65;;;24.60;99.90;;;;;;5058800;28;20275;-75
2023/10/07 13:36:16;;;;;;;2.72;1.55;;;24.90;99.90;;;;;;5058972;28;20807;-74
2023/10/07 13:38:44;;;;;;;1.30;1.20;;;24.90;99.90;;;;;;5058428;28;20203;-72
2023/10/07 13:41:18;;;;;;;2.13;1.83;;;24.90;99.90;;;;;;5059803;28;20202;-75
2023/10/07 13:43:46;;;;;;;2.13;1.90;;;24.70;99.90;;;;;;5059669;28;20207;-75
2023/10/07 13:46:14;;;;;;;1.60;1.50;;;24.70;99.90;;;;;;5059660;28;20223;-71
2023/10/07 13:48:43;;;;;;;4.45;2.20;;;24.80;99.90;;;;;;5059174;28;20206;-71
2023/10/07 13:51:12;;;;;;;4.20;1.50;;;24.70;99.90;;;;;;5058916;28;20282;-72